Time;durP1;ratioP1;P1;durP2;ratioP2;P2;SDS_P1;SDS_P2;PMS_P1;PMS_P2;Temp;Humidity;BMP_temperature;BMP_pressure;BME280_temperature;BME280_humidity;BME280_pressure;Samples;Min_cycle;Max_cycle;Signal;HPM_P1;HPM_P2
2022/07/24 00:01:05;;;;;;;;;19.00;17.25;;;;;22.36;58.64;101434.41;5073093;27;45309;-83
2022/07/24 00:03:30;;;;;;;;;22.50;21.50;;;;;22.11;58.87;101404.13;5073485;28;45298;-84
2022/07/24 00:05:56;;;;;;;;;19.50;19.25;;;;;22.35;58.71;101448.69;5073724;27;45275;-83
2022/07/24 00:08:21;;;;;;;;;21.50;20.75;;;;;22.30;59.12;101446.03;5073439;28;46210;-83
2022/07/24 00:10:47;;;;;;;;;23.75;21.25;;;;;22.31;58.92;101446.91;5073439;28;45502;-82
2022/07/24 00:13:12;;;;;;;;;20.75;20.75;;;;;22.36;59.12;101463.84;5073543;28;45460;-83
2022/07/24 00:15:37;;;;;;;;;20.00;20.00;;;;;22.26;59.46;101441.56;5072317;28;45482;-83
2022/07/24 00:18:03;;;;;;;;;20.75;20.25;;;;;22.12;59.75;101420.19;5073099;28;45492;-83
2022/07/24 00:20:28;;;;;;;;;19.00;19.00;;;;;22.14;59.69;101434.47;5073528;27;45588;-83
2022/07/24 00:22:53;;;;;;;;;23.25;22.50;;;;;22.05;60.03;101415.69;5072135;28;45237;-83
2022/07/24 00:25:19;;;;;;;;;20.25;19.25;;;;;22.05;59.77;101421.06;5072951;28;45290;-83
2022/07/24 00:27:44;;;;;;;;;20.00;18.00;;;;;22.07;60.11;101432.66;5073276;28;46259;-82
2022/07/24 00:30:10;;;;;;;;;18.50;17.25;;;;;22.11;59.86;101439.81;5088709;27;47039;-83
2022/07/24 00:32:35;;;;;;;;;18.75;18.75;;;;;22.09;60.17;101443.38;5073009;27;45373;-83
2022/07/24 00:35:01;;;;;;;;;17.25;17.25;;;;;22.11;60.25;101447.84;5073231;28;45409;-83
2022/07/24 00:37:27;;;;;;;;;19.75;17.75;;;;;21.74;59.90;101379.19;5072968;27;46633;-82
2022/07/24 00:39:52;;;;;;;;;19.25;19.25;;;;;22.03;60.11;101435.34;5073273;28;45612;-83
2022/07/24 00:42:18;;;;;;;;;24.75;21.75;;;;;22.03;60.30;101432.69;5073344;28;45377;-82
2022/07/24 00:44:43;;;;;;;;;19.50;18.75;;;;;21.97;60.54;101419.28;5071510;28;45781;-83
2022/07/24 00:47:08;;;;;;;;;20.75;19.25;;;;;21.95;60.88;101419.28;5072637;27;45442;-83
2022/07/24 00:49:34;;;;;;;;;16.00;15.00;;;;;21.84;60.79;101394.34;5071452;28;45886;-82
2022/07/24 00:51:59;;;;;;;;;19.00;18.00;;;;;21.98;60.80;101410.38;5073647;28;45652;-82
2022/07/24 00:54:25;;;;;;;;;19.75;18.75;;;;;21.77;60.57;101379.16;5071662;28;45369;-82
2022/07/24 00:56:52;;;;;;;;;17.75;17.75;;;;;21.99;61.15;101418.41;5071719;28;47177;-83
2022/07/24 00:59:19;;;;;;;;;21.00;19.25;;;;;21.88;61.17;101404.16;5072874;27;45991;-83
2022/07/24 01:01:45;;;;;;;;;19.50;18.75;;;;;21.71;61.21;101376.50;5073368;27;45527;-82
2022/07/24 01:04:11;;;;;;;;;20.25;19.25;;;;;21.95;61.31;101415.72;5072417;27;45505;-83
2022/07/24 01:06:36;;;;;;;;;17.50;17.00;;;;;21.88;61.49;101394.31;5072659;28;45688;-83
2022/07/24 01:09:02;;;;;;;;;19.00;18.00;;;;;21.71;61.74;101358.66;5072337;27;45528;-83
2022/07/24 01:11:28;;;;;;;;;20.00;19.50;;;;;21.79;61.19;101383.63;5071741;28;45389;-83
2022/07/24 01:13:54;;;;;;;;;19.00;18.75;;;;;21.83;61.44;101404.16;5074944;27;45485;-83
2022/07/24 01:16:19;;;;;;;;;20.25;18.25;;;;;21.64;61.16;101379.19;5076031;28;46687;-83
2022/07/24 01:18:45;;;;;;;;;19.75;18.75;;;;;21.75;62.03;101402.38;5075712;27;45254;-83
2022/07/24 01:21:10;;;;;;;;;18.00;18.00;;;;;21.79;61.73;101418.41;5074876;28;45370;-83
2022/07/24 01:23:35;;;;;;;;;16.25;16.25;;;;;21.77;61.91;101414.88;5074748;28;45414;-82
2022/07/24 01:26:01;;;;;;;;;21.00;19.25;;;;;21.72;61.63;101413.06;5075625;27;46564;-84
2022/07/24 01:28:27;;;;;;;;;17.00;16.00;;;;;21.69;61.42;101411.28;5075772;28;45497;-83
2022/07/24 01:30:52;;;;;;;;;18.75;16.50;;;;;21.60;61.62;101395.25;5074621;27;45349;-82
2022/07/24 01:33:19;;;;;;;;;17.25;17.00;;;;;21.76;61.78;101425.53;5075376;28;45261;-82
2022/07/24 01:35:44;;;;;;;;;19.75;18.75;;;;;21.68;61.71;101408.63;5075884;27;45540;-82
2022/07/24 01:38:10;;;;;;;;;19.00;19.00;;;;;21.75;62.19;101426.44;5075823;28;45378;-83
2022/07/24 01:40:36;;;;;;;;;19.25;17.75;;;;;21.68;62.40;101412.19;5075789;27;45344;-82
2022/07/24 01:43:02;;;;;;;;;18.75;17.25;;;;;21.51;62.47;101387.22;5076262;27;45788;-83
2022/07/24 01:45:27;;;;;;;;;17.75;17.75;;;;;21.74;62.48;101428.22;5074142;28;48305;-84
2022/07/24 01:47:52;;;;;;;;;22.50;20.75;;;;;21.47;61.98;101386.31;5073837;28;45559;-83
2022/07/24 01:50:18;;;;;;;;;20.75;19.75;;;;;21.60;62.27;101411.28;5074385;28;45887;-83
2022/07/24 01:52:44;;;;;;;;;17.50;16.50;;;;;21.66;62.14;101421.09;5075652;27;45298;-83
2022/07/24 01:55:09;;;;;;;;;16.25;15.75;;;;;21.60;62.55;101411.28;5075629;27;45386;-83
2022/07/24 01:57:35;;;;;;;;;20.75;18.00;;;;;21.64;62.36;101413.97;5074227;28;45294;-83
2022/07/24 02:00:00;;;;;;;;;17.75;17.25;;;;;21.56;62.06;101401.47;5075716;27;45331;-82
2022/07/24 02:02:27;;;;;;;;;17.00;16.75;;;;;21.69;62.35;101419.31;5075318;27;45552;-84
2022/07/24 02:04:52;;;;;;;;;18.25;17.25;;;;;21.60;62.05;101393.44;5073924;28;48230;-82
2022/07/24 02:07:18;;;;;;;;;17.75;17.50;;;;;21.61;62.26;101387.19;5090996;27;45470;-82
2022/07/24 02:09:43;;;;;;;;;13.50;12.50;;;;;21.71;61.85;101406.81;5074021;28;45431;-83
2022/07/24 02:12:09;;;;;;;;;17.50;16.75;;;;;21.64;61.84;101389.88;5075436;28;45595;-83
2022/07/24 02:14:34;;;;;;;;;16.00;15.75;;;;;21.66;62.13;101389.00;5075494;27;45801;-83
2022/07/24 02:16:59;;;;;;;;;15.00;14.25;;;;;21.61;62.27;101384.53;5073474;28;45373;-83
2022/07/24 02:19:25;;;;;;;;;17.00;16.75;;;;;21.44;61.86;101351.56;5074092;28;45381;-83
2022/07/24 02:21:50;;;;;;;;;16.25;15.75;;;;;21.65;62.09;101396.13;5074307;27;45308;-83
2022/07/24 02:24:16;;;;;;;;;16.25;16.00;;;;;21.67;62.22;101401.47;5074603;27;46442;-84
2022/07/24 02:26:41;;;;;;;;;15.75;15.00;;;;;21.66;62.42;101395.22;5075292;28;45779;-84
2022/07/24 02:29:06;;;;;;;;;15.75;15.50;;;;;21.51;62.34;101374.72;5075326;27;45444;-82
2022/07/24 02:31:32;;;;;;;;;16.00;14.25;;;;;21.37;62.36;101358.66;5075014;27;45550;-82
2022/07/24 02:33:57;;;;;;;;;16.25;15.50;;;;;21.48;62.52;101387.22;5074465;27;46365;-83
2022/07/24 02:36:23;;;;;;;;;16.00;15.50;;;;;21.32;62.38;101354.22;5073531;28;45437;-84
2022/07/24 02:38:48;;;;;;;;;17.50;17.00;;;;;21.41;62.35;101369.38;5075473;27;45619;-82
2022/07/24 02:41:13;;;;;;;;;16.25;16.25;;;;;21.46;62.50;101384.53;5073585;28;45460;-83
2022/07/24 02:43:39;;;;;;;;;16.75;15.50;;;;;21.40;62.37;101373.84;5074683;28;45523;-83
2022/07/24 02:46:04;;;;;;;;;15.50;15.50;;;;;21.23;62.70;101355.09;5074651;27;45496;-82
2022/07/24 02:48:30;;;;;;;;;14.00;12.75;;;;;21.40;62.80;101372.94;5073147;28;45491;-82
2022/07/24 02:50:56;;;;;;;;;15.75;14.75;;;;;21.33;62.71;101366.72;5073322;28;45605;-83
2022/07/24 02:53:21;;;;;;;;;18.00;16.25;;;;;21.35;62.74;101372.94;5072914;27;47263;-82
2022/07/24 02:55:47;;;;;;;;;16.75;16.00;;;;;20.99;63.04;101323.88;5073174;28;46031;-83
2022/07/24 02:58:12;;;;;;;;;13.75;13.75;;;;;21.18;62.71;101350.59;5075122;27;45634;-83
2022/07/24 03:00:38;;;;;;;;;18.00;16.75;;;;;21.13;62.90;101343.50;5074937;28;45522;-80
2022/07/24 03:03:03;;;;;;;;;16.25;15.75;;;;;21.17;63.09;101355.06;5072927;28;47315;-83
2022/07/24 03:05:28;;;;;;;;;18.75;17.50;;;;;21.11;63.05;101350.63;5074559;28;45224;-83
2022/07/24 03:07:54;;;;;;;;;15.75;15.25;;;;;21.15;63.61;101350.63;5074465;27;45280;-83
2022/07/24 03:10:19;;;;;;;;;18.00;17.50;;;;;21.16;63.43;101361.31;5074526;27;45660;-84
2022/07/24 03:12:45;;;;;;;;;16.50;16.00;;;;;20.99;63.46;101336.38;5074261;27;45430;-83
2022/07/24 03:15:12;;;;;;;;;14.25;13.50;;;;;21.03;63.67;101347.06;5074210;27;45418;-82
2022/07/24 03:17:38;;;;;;;;;15.75;14.25;;;;;20.93;63.57;101339.00;5072771;28;45517;-83
2022/07/24 03:20:04;;;;;;;;;15.75;15.50;;;;;20.97;63.62;101347.03;5074729;28;45524;-85
2022/07/24 03:22:29;;;;;;;;;15.75;15.75;;;;;20.85;63.78;101331.00;5074058;27;45491;-83
2022/07/24 03:24:55;;;;;;;;;13.50;12.50;;;;;20.97;64.04;101351.47;5074102;27;47787;-83
2022/07/24 03:27:20;;;;;;;;;15.75;14.50;;;;;20.93;63.93;101349.69;5074486;28;45499;-84
2022/07/24 03:29:46;;;;;;;;;19.00;17.50;;;;;20.87;63.76;101342.56;5074345;27;45492;-82
2022/07/24 03:32:12;;;;;;;;;12.50;12.00;;;;;20.80;64.01;101339.00;5072489;28;47112;-84
2022/07/24 03:34:37;;;;;;;;;16.75;16.25;;;;;20.82;63.96;101349.69;5073787;28;45579;-84
2022/07/24 03:37:02;;;;;;;;;16.00;16.00;;;;;20.82;64.14;101347.91;5072116;28;45378;-83
2022/07/24 03:39:28;;;;;;;;;18.50;17.50;;;;;20.85;64.36;101358.59;5074044;27;45338;-83
2022/07/24 03:41:53;;;;;;;;;16.00;15.75;;;;;20.58;64.50;101316.66;5074441;27;45914;-84
2022/07/24 03:44:18;;;;;;;;;17.50;17.50;;;;;20.74;64.56;101343.41;5074073;27;45308;-83
2022/07/24 03:46:44;;;;;;;;;19.00;18.00;;;;;20.73;64.36;101346.97;5072553;28;45642;-84
2022/07/24 03:49:09;;;;;;;;;18.00;17.75;;;;;20.64;64.39;101346.94;5072697;27;45598;-83
2022/07/24 03:51:37;;;;;;;;;17.75;17.25;;;;;20.62;64.59;101346.94;5073790;28;46385;-84
2022/07/24 03:54:03;;;;;;;;;18.00;17.50;;;;;20.69;64.69;101366.56;5073639;27;46129;-84
2022/07/24 03:56:28;;;;;;;;;21.75;18.75;;;;;20.65;64.97;101365.66;5073879;27;45365;-85
2022/07/24 03:58:54;;;;;;;;;18.75;18.00;;;;;20.53;65.00;101350.47;5072608;28;45434;-82
2022/07/24 04:01:20;;;;;;;;;18.00;17.00;;;;;20.57;65.01;101354.94;5073367;27;45485;-84
2022/07/24 04:03:46;;;;;;;;;17.00;17.00;;;;;20.53;65.04;101339.78;5073344;27;45862;-83
2022/07/24 04:06:11;;;;;;;;;17.75;17.00;;;;;20.43;65.06;101335.28;5073762;28;45450;-82
2022/07/24 04:08:36;;;;;;;;;17.75;17.50;;;;;20.59;65.11;101361.22;5073483;27;44872;-84
2022/07/24 04:11:02;;;;;;;;;17.00;17.00;;;;;20.55;65.22;101353.19;5073587;27;45296;-84
2022/07/24 04:13:29;;;;;;;;;20.75;19.75;;;;;20.61;65.21;101369.22;5073482;28;45282;-82
2022/07/24 04:15:55;;;;;;;;;19.25;18.25;;;;;20.60;65.26;101364.78;5072163;28;45244;-83
2022/07/24 04:18:21;;;;;;;;;18.50;18.50;;;;;20.58;65.18;101370.06;5071740;28;45712;-84
2022/07/24 04:20:47;;;;;;;;;17.25;16.75;;;;;20.43;65.63;101348.63;5073373;27;46295;-83
2022/07/24 04:23:12;;;;;;;;;24.00;21.25;;;;;20.46;65.18;101347.75;5073443;27;45922;-83
2022/07/24 04:25:38;;;;;;;;;20.25;19.25;;;;;20.58;65.22;101363.84;5072126;28;45388;-83
2022/07/24 04:28:04;;;;;;;;;17.25;16.75;;;;;20.60;65.20;101371.00;5072110;28;45491;-83
2022/07/24 04:30:30;;;;;;;;;18.50;18.25;;;;;20.60;65.73;101376.34;5073434;28;45649;-83
2022/07/24 04:32:56;;;;;;;;;18.00;17.25;;;;;20.46;65.37;101351.31;5073423;27;45588;-83
2022/07/24 04:35:21;;;;;;;;;18.75;18.50;;;;;20.57;65.28;101370.97;5073352;27;45441;-82
2022/07/24 04:37:47;;;;;;;;;14.00;13.50;;;;;20.35;65.62;101335.28;5073513;27;45339;-82
2022/07/24 04:40:13;;;;;;;;;17.50;17.00;;;;;20.44;65.75;101361.09;5073136;28;45960;-84
2022/07/24 04:42:38;;;;;;;;;18.25;17.75;;;;;20.45;65.66;101356.66;5072009;28;45921;-82
2022/07/24 04:45:05;;;;;;;;;21.75;20.25;;;;;20.27;65.72;101318.31;5073296;27;45401;-82
2022/07/24 04:47:30;;;;;;;;;20.50;20.25;;;;;20.41;65.65;101338.84;5073511;28;45492;-82
2022/07/24 04:49:55;;;;;;;;;18.00;17.25;;;;;20.57;65.65;101362.97;5075373;27;48313;-84
2022/07/24 04:52:21;;;;;;;;;25.50;19.75;;;;;20.31;65.97;101317.44;5076543;27;45715;-83
2022/07/24 04:54:46;;;;;;;;;19.75;18.25;;;;;20.53;66.33;101355.81;5076602;27;45300;-82
2022/07/24 04:57:11;;;;;;;;;19.50;18.50;;;;;20.53;65.97;101355.81;5076578;27;45360;-82
2022/07/24 04:59:37;;;;;;;;;20.00;17.75;;;;;20.52;66.26;101350.47;5074826;28;46860;-82
2022/07/24 05:02:02;;;;;;;;;19.00;18.25;;;;;20.55;66.06;101343.38;5075999;28;45404;-82
2022/07/24 05:04:28;;;;;;;;;18.25;18.25;;;;;20.59;66.24;101350.53;5074992;28;45493;-83
2022/07/24 05:06:53;;;;;;;;;16.75;16.75;;;;;20.67;65.87;101363.88;5076367;27;45489;-82
2022/07/24 05:09:19;;;;;;;;;18.00;18.00;;;;;20.66;65.71;101353.22;5076240;28;46105;-83
2022/07/24 05:11:44;;;;;;;;;21.25;20.50;;;;;20.52;66.40;101330.00;5074712;27;45409;-82
2022/07/24 05:14:09;;;;;;;;;18.00;18.00;;;;;20.60;66.10;101341.63;5076580;28;45570;-82
2022/07/24 05:16:35;;;;;;;;;16.25;16.25;;;;;20.69;66.58;101351.44;5076289;28;45526;-83
2022/07/24 05:19:00;;;;;;;;;19.75;19.50;;;;;20.64;66.45;101333.59;5074100;27;46923;-83
2022/07/24 05:21:25;;;;;;;;;19.50;17.75;;;;;20.71;66.42;101346.97;5076039;27;45365;-82
2022/07/24 05:23:51;;;;;;;;;19.00;18.25;;;;;20.73;66.35;101353.22;5074935;28;45409;-83
2022/07/24 05:26:16;;;;;;;;;18.75;18.00;;;;;20.65;66.19;101327.38;5074539;28;45381;-83
2022/07/24 05:28:41;;;;;;;;;19.75;19.50;;;;;20.96;66.53;101371.09;5076407;27;46589;-83
2022/07/24 05:31:08;;;;;;;;;20.75;19.25;;;;;20.96;66.43;101350.59;5076004;28;45467;-82
2022/07/24 05:33:33;;;;;;;;;20.25;18.25;;;;;21.03;65.85;101362.19;5074448;27;45389;-84
2022/07/24 05:35:59;;;;;;;;;17.50;16.50;;;;;20.98;66.17;101338.13;5076045;27;45508;-83
2022/07/24 05:38:24;;;;;;;;;17.00;16.50;;;;;21.18;65.84;101361.31;5074325;28;46975;-82
2022/07/24 05:40:49;;;;;;;;;18.25;17.00;;;;;21.09;65.57;101346.16;5075903;28;45243;-83
2022/07/24 05:43:16;;;;;;;;;19.50;19.00;;;;;21.29;65.36;101365.78;5075802;27;45369;-83
2022/07/24 05:45:42;;;;;;;;;22.00;20.25;;;;;21.22;65.11;101350.63;5075697;28;45437;-83
2022/07/24 05:48:07;;;;;;;;;16.00;15.50;;;;;21.20;65.02;101336.38;5075288;27;46406;-82
2022/07/24 05:50:35;;;;;;;;;17.50;16.50;;;;;21.25;65.18;101331.03;5074233;28;46065;-83
2022/07/24 05:53:01;;;;;;;;;20.25;18.75;;;;;21.36;65.26;101334.63;5074383;27;45422;-83
2022/07/24 05:55:27;;;;;;;;;18.67;17.67;;;;;21.55;65.22;101359.56;5075459;28;46884;-83
2022/07/24 05:57:53;;;;;;;;;16.00;16.00;;;;;21.55;64.62;101357.78;5074984;28;45477;-83
2022/07/24 06:00:18;;;;;;;;;18.25;17.25;;;;;21.56;65.07;101348.84;5074901;28;45366;-83
2022/07/24 06:02:46;;;;;;;;;17.00;16.75;;;;;21.57;64.84;101347.06;5075256;27;45295;-84
2022/07/24 06:05:11;;;;;;;;;16.75;16.75;;;;;21.62;64.36;101348.88;5075337;27;45338;-83
2022/07/24 06:07:39;;;;;;;;;19.25;18.50;;;;;21.44;64.38;101306.09;5075776;28;45765;-83
2022/07/24 06:10:05;;;;;;;;;18.25;16.75;;;;;21.80;64.28;101361.31;5074485;28;45776;-83
2022/07/24 06:12:31;;;;;;;;;18.75;17.75;;;;;21.78;64.43;101346.19;5075517;27;45318;-83
2022/07/24 06:14:56;;;;;;;;;17.50;16.50;;;;;21.94;63.84;101360.41;5074231;28;45640;-83
2022/07/24 06:17:21;;;;;;;;;19.75;18.00;;;;;21.93;64.02;101345.25;5075124;27;45574;-82
2022/07/24 06:19:46;;;;;;;;;16.33;15.67;;;;;21.95;64.11;101341.66;5075018;27;48265;-83
2022/07/24 06:22:12;;;;;;;;;15.25;14.50;;;;;21.97;63.93;101326.50;5075178;28;45350;-83
2022/07/24 06:24:37;;;;;;;;;21.25;18.25;;;;;22.04;63.52;101333.59;5075213;27;45437;-82
2022/07/24 06:27:04;;;;;;;;;19.50;17.75;;;;;22.11;63.18;101335.38;5073426;28;48114;-83
2022/07/24 06:29:30;;;;;;;;;17.00;16.25;;;;;22.13;63.69;101328.25;5073796;28;46181;-82
2022/07/24 06:31:55;;;;;;;;;21.50;20.50;;;;;22.18;63.33;101335.38;5074733;27;45241;-82
2022/07/24 06:34:23;;;;;;;;;20.00;19.00;;;;;22.25;63.54;101329.09;5075232;27;45373;-83
2022/07/24 06:36:49;;;;;;;;;18.50;17.50;;;;;22.08;63.28;101294.34;5073638;28;46989;-85
2022/07/24 06:39:14;;;;;;;;;20.75;19.00;;;;;22.33;63.24;101332.66;5073594;28;45419;-83
2022/07/24 06:41:40;;;;;;;;;20.00;19.33;;;;;22.41;63.29;101336.16;5075288;27;45319;-84
2022/07/24 06:44:05;;;;;;;;;17.50;16.50;;;;;22.33;63.12;101306.75;5073425;28;45541;-84
2022/07/24 06:46:30;;;;;;;;;21.50;20.00;;;;;22.38;63.11;101310.31;5073126;28;48655;-83
2022/07/24 06:48:56;;;;;;;;;17.00;15.75;;;;;22.39;63.49;101296.00;5074340;27;45528;-82
2022/07/24 06:51:21;;;;;;;;;20.50;20.25;;;;;22.48;63.30;101308.47;5074783;28;45537;-83
2022/07/24 06:53:46;;;;;;;;;24.50;23.25;;;;;22.55;63.19;101310.19;5075314;27;45502;-84
2022/07/24 06:56:12;;;;;;;;;21.75;19.75;;;;;22.74;63.14;101343.13;5074619;28;45326;-84
2022/07/24 06:58:37;;;;;;;;;20.00;19.50;;;;;22.62;63.02;101320.00;5074912;28;45563;-84
2022/07/24 07:01:03;;;;;;;;;21.75;21.00;;;;;22.67;62.96;101315.50;5073349;28;45346;-84
2022/07/24 07:03:28;;;;;;;;;22.50;22.00;;;;;22.79;62.89;101319.00;5072677;27;45450;-83
2022/07/24 07:05:53;;;;;;;;;19.33;18.67;;;;;22.76;62.71;101313.63;5074569;28;50170;-84
2022/07/24 07:08:19;;;;;;;;;20.75;18.75;;;;;22.76;62.92;101297.56;5073212;28;45873;-83
2022/07/24 07:10:44;;;;;;;;;22.75;21.25;;;;;22.84;62.31;101311.81;5074201;28;45642;-84
2022/07/24 07:13:09;;;;;;;;;22.75;21.75;;;;;22.76;62.28;101294.88;5074784;27;45376;-84
2022/07/24 07:15:34;;;;;;;;;23.50;21.50;;;;;22.96;62.53;101321.63;5074477;28;46078;-83
2022/07/24 07:18:00;;;;;;;;;20.50;19.50;;;;;22.95;61.62;101312.66;5073922;28;45361;-84
2022/07/24 07:20:25;;;;;;;;;21.00;20.00;;;;;23.13;61.90;101342.00;5074558;27;45527;-83
2022/07/24 07:22:51;;;;;;;;;20.75;20.00;;;;;23.03;61.69;101324.22;5072819;27;45520;-83
2022/07/24 07:25:16;;;;;;;;;22.50;20.75;;;;;23.07;61.70;101325.97;5072440;28;48276;-83
2022/07/24 07:27:41;;;;;;;;;23.00;20.00;;;;;23.11;61.54;101330.44;5074089;27;45377;-83
2022/07/24 07:30:09;;;;;;;;;24.25;24.00;;;;;23.23;61.64;101333.91;5072936;28;45444;-83
2022/07/24 07:32:34;;;;;;;;;25.50;22.50;;;;;23.26;61.26;101336.56;5073756;27;45357;-83
2022/07/24 07:34:59;;;;;;;;;21.00;20.50;;;;;23.26;61.52;101336.56;5074477;28;45869;-83
2022/07/24 07:37:25;;;;;;;;;23.50;22.50;;;;;23.26;62.11;101328.53;5074000;28;45465;-82
2022/07/24 07:39:50;;;;;;;;;17.25;17.00;;;;;23.22;61.45;101308.00;5074164;27;45437;-83
2022/07/24 07:42:15;;;;;;;;;23.75;22.25;;;;;23.21;61.24;101304.44;5074101;28;45275;-83
2022/07/24 07:44:41;;;;;;;;;23.00;21.50;;;;;23.25;61.61;101299.91;5072082;28;48243;-83
2022/07/24 07:47:06;;;;;;;;;21.00;20.00;;;;;23.42;61.94;101324.78;5073411;27;45394;-83
2022/07/24 07:49:31;;;;;;;;;19.25;18.75;;;;;23.32;61.00;101297.16;5072416;28;45426;-83
2022/07/24 07:51:57;;;;;;;;;19.75;19.50;;;;;23.37;60.90;101292.66;5073939;28;45569;-83
2022/07/24 07:54:22;;;;;;;;;19.25;17.50;;;;;23.51;61.10;101307.72;5073654;27;46039;-83
2022/07/24 07:56:47;;;;;;;;;22.50;21.50;;;;;23.53;60.26;101306.78;5074232;27;45499;-83
2022/07/24 07:59:13;;;;;;;;;20.00;19.00;;;;;23.71;60.72;101326.34;5072505;28;45290;-83
2022/07/24 08:01:38;;;;;;;;;25.75;23.50;;;;;23.63;60.34;101303.16;5073386;27;45261;-83
2022/07/24 08:04:04;;;;;;;;;22.50;20.50;;;;;23.56;59.95;101271.00;5073335;27;45477;-83
2022/07/24 08:06:30;;;;;;;;;23.25;22.25;;;;;23.75;60.53;101304.84;5073514;27;45459;-83
2022/07/24 08:08:55;;;;;;;;;21.75;20.25;;;;;23.90;60.82;101314.50;5072244;28;45415;-83
2022/07/24 08:11:20;;;;;;;;;21.00;20.75;;;;;23.68;60.92;101271.78;5074038;28;45736;-83
2022/07/24 08:13:46;;;;;;;;;18.75;18.00;;;;;23.93;59.55;101304.59;5073271;27;46590;-83
2022/07/24 08:16:12;;;;;;;;;17.75;17.00;;;;;24.02;59.88;101305.41;5071935;28;45511;-83
2022/07/24 08:18:38;;;;;;;;;21.50;21.25;;;;;24.11;59.46;101302.63;5071869;27;45477;-83
2022/07/24 08:21:03;;;;;;;;;18.00;18.00;;;;;24.14;59.74;101291.84;5072078;28;45502;-83
2022/07/24 08:23:29;;;;;;;;;18.50;17.50;;;;;24.10;58.19;101269.50;5076985;27;46587;-83
2022/07/24 08:25:54;;;;;;;;;19.50;17.25;;;;;24.19;58.91;101282.81;5075218;28;45653;-83
2022/07/24 08:28:22;;;;;;;;;20.75;17.50;;;;;24.28;58.25;101284.47;5075702;27;45316;-83
2022/07/24 08:30:48;;;;;;;;;23.00;19.50;;;;;24.37;57.69;101294.25;5077052;27;45426;-83
2022/07/24 08:33:13;;;;;;;;;20.50;19.25;;;;;24.38;57.64;101285.28;5076677;27;46436;-83
2022/07/24 08:35:39;;;;;;;;;18.50;18.25;;;;;24.37;57.60;101280.81;5076294;27;45650;-82
2022/07/24 08:38:05;;;;;;;;;16.50;15.75;;;;;24.40;57.50;101272.72;5075665;28;45355;-83
2022/07/24 08:40:35;;;;;;;;;17.00;16.75;;;;;24.59;56.82;101289.47;5075626;28;45579;-83
2022/07/24 08:43:02;;;;;;;;;16.75;16.00;;;;;24.68;56.40;101300.09;5075388;28;47300;-83
2022/07/24 08:45:27;;;;;;;;;17.00;17.00;;;;;24.57;55.81;101267.09;5076403;27;45828;-82
2022/07/24 08:47:56;;;;;;;;;17.75;17.25;;;;;24.65;55.37;101270.56;5076774;27;45296;-82
2022/07/24 08:50:21;;;;;;;;;18.00;16.25;;;;;24.57;55.79;101249.16;5076184;27;45354;-83
2022/07/24 08:52:48;;;;;;;;;13.75;13.25;;;;;24.71;55.24;101263.28;5075184;27;47444;-83
2022/07/24 08:55:14;;;;;;;;;15.25;14.75;;;;;24.73;55.09;101254.28;5076656;27;45853;-83
2022/07/24 08:57:39;;;;;;;;;14.50;13.50;;;;;24.82;55.14;101256.84;5076328;28;45316;-83
2022/07/24 09:00:05;;;;;;;;;12.75;12.00;;;;;25.01;55.05;101270.88;5075241;28;45523;-83
2022/07/24 09:02:31;;;;;;;;;15.25;13.25;;;;;24.99;53.98;101257.47;5076261;27;46154;-83
2022/07/24 09:05:01;;;;;;;;;14.00;13.25;;;;;25.05;54.54;101257.38;5075723;27;45432;-83
2022/07/24 09:07:29;;;;;;;;;12.00;11.25;;;;;25.11;53.72;101251.91;5075229;28;45510;-83
2022/07/24 09:10:16;;;;;;;;;9.75;9.25;;;;;25.26;52.70;101263.31;5074918;28;45659;-83
2022/07/24 09:12:47;;;;;;;;;11.25;10.25;;;;;25.24;52.40;101244.53;5076413;27;45600;-84
2022/07/24 09:15:18;;;;;;;;;12.00;11.00;;;;;25.24;52.09;101232.88;5075256;28;45874;-83
2022/07/24 09:17:51;;;;;;;;;11.50;11.50;;;;;25.37;52.09;101240.69;5075194;28;45511;-82
2022/07/24 09:20:19;;;;;;;;;13.25;13.00;;;;;25.52;52.36;101254.75;5076064;27;45489;-83
2022/07/24 09:22:44;;;;;;;;;10.75;10.00;;;;;25.48;52.16;101236.00;5074426;28;48295;-83
2022/07/24 09:25:16;;;;;;;;;11.00;10.25;;;;;25.66;50.73;101242.81;5074608;28;45576;-82
2022/07/24 09:28:02;;;;;;;;;12.00;11.25;;;;;25.60;51.08;101226.78;5075837;27;45608;-83
2022/07/24 09:30:37;;;;;;;;;14.25;12.75;;;;;25.78;51.28;101240.84;5076020;28;45317;-82
2022/07/24 09:33:05;;;;;;;;;10.00;10.00;;;;;25.85;51.50;101231.69;5073534;28;48416;-83
2022/07/24 09:35:38;;;;;;;;;12.00;11.50;;;;;25.90;50.70;101236.06;5074059;28;45857;-83
2022/07/24 09:38:25;;;;;;;;;10.25;10.00;;;;;25.97;50.43;101235.03;5074744;28;45553;-83
2022/07/24 09:40:52;;;;;;;;;13.25;11.75;;;;;26.02;49.96;101226.84;5075459;27;45759;-83
2022/07/24 09:43:24;;;;;;;;;13.25;12.75;;;;;26.10;50.35;101227.56;5074166;28;47658;-83
2022/07/24 09:45:52;;;;;;;;;12.75;12.75;;;;;26.16;50.17;101215.78;5075386;28;45735;-84
2022/07/24 09:48:22;;;;;;;;;10.50;10.50;;;;;26.27;50.35;101227.19;5074438;28;45603;-83
2022/07/24 09:50:55;;;;;;;;;9.00;9.00;;;;;26.35;49.79;101221.63;5075788;28;45248;-83
2022/07/24 09:53:23;;;;;;;;;11.75;11.50;;;;;26.33;49.07;101212.69;5075644;27;46526;-84
2022/07/24 09:56:03;;;;;;;;;12.25;12.25;;;;;26.45;49.02;101224.13;5075563;27;45457;-83
2022/07/24 09:58:31;;;;;;;;;12.25;12.00;;;;;26.41;49.23;101216.13;5074326;28;45414;-83
2022/07/24 10:01:00;;;;;;;;;12.00;11.25;;;;;26.54;49.03;101220.31;5075734;27;45324;-84
2022/07/24 10:03:31;;;;;;;;;11.50;10.75;;;;;26.58;48.82;101216.63;5075061;27;45363;-84
2022/07/24 10:06:02;;;;;;;;;10.00;10.00;;;;;26.62;48.72;101199.44;5075393;28;45816;-84
2022/07/24 10:08:29;;;;;;;;;14.00;13.25;;;;;26.56;48.63;101191.50;5074150;27;45636;-84
2022/07/24 10:10:55;;;;;;;;;13.75;13.00;;;;;26.64;48.43;101184.09;5074166;28;45521;-83
2022/07/24 10:13:21;;;;;;;;;12.75;11.25;;;;;26.81;48.06;101199.88;5073968;28;47014;-84
2022/07/24 10:16:13;;;;;;;;;11.00;10.00;;;;;26.90;48.35;101204.16;5075677;27;45449;-83
2022/07/24 10:18:51;;;;;;;;;9.00;9.00;;;;;26.98;46.93;101210.22;5062566;28;45372;-83
2022/07/24 10:21:18;;;;;;;;;11.25;11.00;;;;;26.98;46.49;101192.22;5075336;28;45412;-84
2022/07/24 10:24:06;;;;;;;;;23.75;22.75;;;;;27.05;46.66;101189.38;5075265;27;47339;-83
2022/07/24 10:26:40;;;;;;;;;14.25;13.50;;;;;27.18;46.46;101198.94;5034736;28;45905;-86
2022/07/24 10:29:21;;;;;;;;;13.00;12.00;;;;;27.24;46.51;101196.97;5075059;28;45351;-83
2022/07/24 10:31:58;;;;;;;;;9.25;8.25;;;;;27.21;45.98;101175.44;5074442;28;45343;-81
2022/07/24 10:34:23;;;;;;;;;11.00;11.00;;;;;27.37;46.13;101188.53;5074102;28;46538;-84
2022/07/24 10:37:06;;;;;;;;;11.75;10.75;;;;;27.20;45.24;101149.41;5075576;28;45355;-83
2022/07/24 10:40:01;;;;;;;;;11.50;11.00;;;;;27.54;45.32;101197.06;5075328;27;45342;-84
2022/07/24 10:42:27;;;;;;;;;14.00;12.25;;;;;27.43;45.40;101158.66;5075305;27;45304;-84
2022/07/24 10:45:18;;;;;;;;;12.00;12.00;;;;;27.59;45.42;101187.00;5074122;28;46519;-84
2022/07/24 10:47:45;;;;;;;;;11.00;11.00;;;;;27.64;44.66;101173.38;5073710;27;45946;-84
2022/07/24 10:50:12;;;;;;;;;9.00;7.50;;;;;27.73;44.41;101165.91;5074717;27;45449;-84
2022/07/24 10:52:39;;;;;;;;;12.00;11.50;;;;;27.81;44.87;101170.19;5075232;27;45256;-85
2022/07/24 10:55:22;;;;;;;;;10.00;10.00;;;;;27.84;44.43;101162.88;5074708;28;45271;-84
2022/07/24 10:58:00;;;;;;;;;11.00;10.50;;;;;27.92;44.06;101157.22;5075204;28;46030;-83
2022/07/24 11:00:25;;;;;;;;;10.75;10.75;;;;;28.07;43.76;101162.16;5073740;28;45480;-85
2022/07/24 11:02:59;;;;;;;;;10.75;9.75;;;;;27.97;43.67;101139.06;5073604;28;45597;-84
2022/07/24 11:05:25;;;;;;;;;11.00;10.50;;;;;28.19;43.06;101152.78;5074412;27;46322;-84
2022/07/24 11:08:12;;;;;;;;;9.00;8.50;;;;;28.27;43.38;101157.00;5074826;28;45597;-84